sensor_id;sensor_type;location;lat;lon;timestamp;pressure;altitude;pressure_sealevel;temperature;humidity
17054;BME280;8643;48.824;11.422;2023-04-09T00:01:58;97599.41;;;3.01;100.00
17054;BME280;8643;48.824;11.422;2023-04-09T00:04:27;97602.38;;;2.99;100.00
17054;BME280;8643;48.824;11.422;2023-04-09T00:06:55;97591.28;;;2.96;100.00
17054;BME280;8643;48.824;11.422;2023-04-09T00:09:24;97594.81;;;2.96;100.00
17054;BME280;8643;48.824;11.422;2023-04-09T00:11:52;97593.72;;;2.97;100.00
17054;BME280;8643;48.824;11.422;2023-04-09T00:14:20;97597.50;;;2.96;100.00
17054;BME280;8643;48.824;11.422;2023-04-09T00:16:51;97583.44;;;2.94;100.00
17054;BME280;8643;48.824;11.422;2023-04-09T00:19:20;97596.44;;;2.92;100.00
17054;BME280;8643;48.824;11.422;2023-04-09T00:21:48;97596.69;;;2.90;100.00
17054;BME280;8643;48.824;11.422;2023-04-09T00:24:17;97596.97;;;2.89;100.00
17054;BME280;8643;48.824;11.422;2023-04-09T00:26:45;97586.41;;;2.92;100.00
17054;BME280;8643;48.824;11.422;2023-04-09T00:29:15;97598.56;;;2.90;100.00
17054;BME280;8643;48.824;11.422;2023-04-09T00:31:43;97591.53;;;2.89;100.00
17054;BME280;8643;48.824;11.422;2023-04-09T00:34:14;97593.16;;;2.90;100.00
17054;BME280;8643;48.824;11.422;2023-04-09T00:36:43;97590.72;;;2.88;100.00
17054;BME280;8643;48.824;11.422;2023-04-09T00:39:11;97589.91;;;2.88;100.00
17054;BME280;8643;48.824;11.422;2023-04-09T00:41:40;97586.69;;;2.91;100.00
17054;BME280;8643;48.824;11.422;2023-04-09T00:44:09;97585.31;;;2.88;100.00
17054;BME280;8643;48.824;11.422;2023-04-09T00:46:38;97580.97;;;2.82;100.00
17054;BME280;8643;48.824;11.422;2023-04-09T00:49:06;97578.81;;;2.79;100.00
17054;BME280;8643;48.824;11.422;2023-04-09T00:51:36;97579.34;;;2.76;100.00
17054;BME280;8643;48.824;11.422;2023-04-09T00:54:06;97578.53;;;2.75;100.00
17054;BME280;8643;48.824;11.422;2023-04-09T00:56:35;97575.50;;;2.72;100.00
17054;BME280;8643;48.824;11.422;2023-04-09T00:59:04;97582.81;;;2.71;100.00
17054;BME280;8643;48.824;11.422;2023-04-09T01:01:32;97577.69;;;2.70;100.00
17054;BME280;8643;48.824;11.422;2023-04-09T01:04:01;97575.25;;;2.73;100.00
17054;BME280;8643;48.824;11.422;2023-04-09T01:06:42;97575.56;;;2.77;100.00
17054;BME280;8643;48.824;11.422;2023-04-09T01:09:20;97581.50;;;2.79;100.00
17054;BME280;8643;48.824;11.422;2023-04-09T01:12:05;97575.56;;;2.82;100.00
17054;BME280;8643;48.824;11.422;2023-04-09T01:14:43;97575.03;;;2.85;100.00
17054;BME280;8643;48.824;11.422;2023-04-09T01:17:22;97580.19;;;2.87;100.00
17054;BME280;8643;48.824;11.422;2023-04-09T01:20:02;97579.88;;;2.83;100.00
17054;BME280;8643;48.824;11.422;2023-04-09T01:22:48;97578.53;;;2.81;100.00
17054;BME280;8643;48.824;11.422;2023-04-09T01:25:44;97568.25;;;2.83;100.00
17054;BME280;8643;48.824;11.422;2023-04-09T01:28:22;97572.59;;;2.84;100.00
17054;BME280;8643;48.824;11.422;2023-04-09T01:31:00;97566.09;;;2.85;100.00
17054;BME280;8643;48.824;11.422;2023-04-09T01:33:30;97566.63;;;2.82;100.00
17054;BME280;8643;48.824;11.422;2023-04-09T01:36:00;97565.56;;;2.83;100.00
17054;BME280;8643;48.824;11.422;2023-04-09T01:38:34;97566.94;;;2.90;100.00
17054;BME280;8643;48.824;11.422;2023-04-09T01:41:04;97572.91;;;2.98;100.00
17054;BME280;8643;48.824;11.422;2023-04-09T01:43:37;97577.50;;;2.97;100.00
17054;BME280;8643;48.824;11.422;2023-04-09T01:46:05;97581.53;;;2.94;100.00
17054;BME280;8643;48.824;11.422;2023-04-09T01:48:36;97575.84;;;2.91;100.00
17054;BME280;8643;48.824;11.422;2023-04-09T01:51:05;97580.19;;;2.92;100.00
17054;BME280;8643;48.824;11.422;2023-04-09T01:53:34;97590.19;;;2.91;100.00
17054;BME280;8643;48.824;11.422;2023-04-09T01:56:03;97581.81;;;2.93;100.00
17054;BME280;8643;48.824;11.422;2023-04-09T01:58:32;97581.28;;;2.96;100.00
17054;BME280;8643;48.824;11.422;2023-04-09T02:01:08;97583.19;;;2.96;100.00
17054;BME280;8643;48.824;11.422;2023-04-09T02:03:44;97585.09;;;2.95;100.00
17054;BME280;8643;48.824;11.422;2023-04-09T02:06:22;97588.84;;;2.94;100.00
17054;BME280;8643;48.824;11.422;2023-04-09T02:08:54;97584.81;;;2.97;100.00
17054;BME280;8643;48.824;11.422;2023-04-09T02:11:28;97579.66;;;2.95;100.00
17054;BME280;8643;48.824;11.422;2023-04-09T02:13:57;97593.72;;;2.97;100.00
17054;BME280;8643;48.824;11.422;2023-04-09T02:16:28;97584.25;;;3.00;100.00
17054;BME280;8643;48.824;11.422;2023-04-09T02:18:59;97588.31;;;2.97;100.00
17054;BME280;8643;48.824;11.422;2023-04-09T02:21:28;97584.81;;;2.97;100.00
17054;BME280;8643;48.824;11.422;2023-04-09T02:23:57;97586.41;;;2.98;100.00
17054;BME280;8643;48.824;11.422;2023-04-09T02:26:26;97580.75;;;2.99;100.00
17054;BME280;8643;48.824;11.422;2023-04-09T02:28:54;97575.88;;;2.96;100.00
17054;BME280;8643;48.824;11.422;2023-04-09T02:31:23;97565.31;;;2.89;100.00
17054;BME280;8643;48.824;11.422;2023-04-09T02:33:53;97570.44;;;2.91;100.00
17054;BME280;8643;48.824;11.422;2023-04-09T02:36:21;97567.72;;;2.81;100.00
17054;BME280;8643;48.824;11.422;2023-04-09T02:38:49;97568.75;;;2.69;100.00
17054;BME280;8643;48.824;11.422;2023-04-09T02:41:18;97561.69;;;2.63;100.00
17054;BME280;8643;48.824;11.422;2023-04-09T02:43:47;97561.94;;;2.56;100.00
17054;BME280;8643;48.824;11.422;2023-04-09T02:46:16;97568.69;;;2.49;100.00
17054;BME280;8643;48.824;11.422;2023-04-09T02:48:44;97572.66;;;2.36;100.00
17054;BME280;8643;48.824;11.422;2023-04-09T02:51:14;97574.72;;;2.13;100.00
17054;BME280;8643;48.824;11.422;2023-04-09T02:53:43;97574.56;;;1.88;100.00
17054;BME280;8643;48.824;11.422;2023-04-09T02:56:11;97573.09;;;1.70;100.00
17054;BME280;8643;48.824;11.422;2023-04-09T02:58:40;97578.41;;;1.59;100.00
17054;BME280;8643;48.824;11.422;2023-04-09T03:01:09;97594.63;;;1.64;100.00
17054;BME280;8643;48.824;11.422;2023-04-09T03:03:38;97587.09;;;1.34;100.00
17054;BME280;8643;48.824;11.422;2023-04-09T03:06:08;97594.34;;;1.01;100.00
17054;BME280;8643;48.824;11.422;2023-04-09T03:08:38;97592.03;;;0.88;100.00
17054;BME280;8643;48.824;11.422;2023-04-09T03:11:06;97591.66;;;0.79;100.00
17054;BME280;8643;48.824;11.422;2023-04-09T03:13:35;97588.72;;;0.59;100.00
17054;BME280;8643;48.824;11.422;2023-04-09T03:16:04;97589.94;;;0.46;100.00
17054;BME280;8643;48.824;11.422;2023-04-09T03:18:32;97588.97;;;0.35;100.00
17054;BME280;8643;48.824;11.422;2023-04-09T03:21:04;97589.16;;;0.28;100.00
17054;BME280;8643;48.824;11.422;2023-04-09T03:23:37;97590.47;;;0.26;100.00
17054;BME280;8643;48.824;11.422;2023-04-09T03:26:07;97590.22;;;0.27;100.00
17054;BME280;8643;48.824;11.422;2023-04-09T03:28:46;97595.78;;;0.21;100.00
17054;BME280;8643;48.824;11.422;2023-04-09T03:31:16;97596.28;;;0.17;100.00
17054;BME280;8643;48.824;11.422;2023-04-09T03:33:45;97592.28;;;0.20;100.00
17054;BME280;8643;48.824;11.422;2023-04-09T03:36:14;97589.34;;;0.22;100.00
17054;BME280;8643;48.824;11.422;2023-04-09T03:38:55;97587.66;;;0.15;100.00
17054;BME280;8643;48.824;11.422;2023-04-09T03:41:29;97594.16;;;0.20;100.00
17054;BME280;8643;48.824;11.422;2023-04-09T03:44:01;97594.00;;;0.26;100.00
17054;BME280;8643;48.824;11.422;2023-04-09T03:46:38;97599.19;;;0.33;100.00
17054;BME280;8643;48.824;11.422;2023-04-09T03:49:08;97593.81;;;0.33;100.00
17054;BME280;8643;48.824;11.422;2023-04-09T03:51:41;97600.88;;;0.39;100.00
17054;BME280;8643;48.824;11.422;2023-04-09T03:54:12;97602.44;;;0.35;100.00
17054;BME280;8643;48.824;11.422;2023-04-09T03:56:41;97602.22;;;0.36;100.00
17054;BME280;8643;48.824;11.422;2023-04-09T03:59:12;97601.06;;;0.32;100.00
17054;BME280;8643;48.824;11.422;2023-04-09T04:01:43;97606.69;;;0.31;100.00
17054;BME280;8643;48.824;11.422;2023-04-09T04:04:12;97603.06;;;0.20;100.00
17054;BME280;8643;48.824;11.422;2023-04-09T04:06:45;97605.03;;;0.08;100.00
17054;BME280;8643;48.824;11.422;2023-04-09T04:09:28;97603.31;;;0.02;100.00
17054;BME280;8643;48.824;11.422;2023-04-09T04:12:02;97607.28;;;-0.06;100.00
17054;BME280;8643;48.824;11.422;2023-04-09T04:15:10;97605.38;;;-0.06;100.00
17054;BME280;8643;48.824;11.422;2023-04-09T04:17:51;97603.97;;;0.09;100.00
17054;BME280;8643;48.824;11.422;2023-04-09T04:20:36;97607.00;;;0.12;100.00
17054;BME280;8643;48.824;11.422;2023-04-09T04:23:13;97613.13;;;0.08;100.00
17054;BME280;8643;48.824;11.422;2023-04-09T04:25:51;97612.41;;;-0.05;100.00
17054;BME280;8643;48.824;11.422;2023-04-09T04:28:27;97608.31;;;-0.07;100.00
17054;BME280;8643;48.824;11.422;2023-04-09T04:30:55;97617.22;;;-0.07;100.00
17054;BME280;8643;48.824;11.422;2023-04-09T04:33:28;97613.63;;;-0.12;100.00
17054;BME280;8643;48.824;11.422;2023-04-09T04:36:04;97619.50;;;-0.15;100.00
17054;BME280;8643;48.824;11.422;2023-04-09T04:38:42;97613.06;;;-0.14;100.00
17054;BME280;8643;48.824;11.422;2023-04-09T04:41:18;97604.16;;;0.02;100.00
17054;BME280;8643;48.824;11.422;2023-04-09T04:43:54;97612.94;;;0.14;100.00
17054;BME280;8643;48.824;11.422;2023-04-09T04:46:24;97607.63;;;0.20;100.00
17054;BME280;8643;48.824;11.422;2023-04-09T04:48:53;97615.31;;;0.28;100.00
17054;BME280;8643;48.824;11.422;2023-04-09T04:51:22;97604.59;;;0.33;100.00
17054;BME280;8643;48.824;11.422;2023-04-09T04:54:04;97609.78;;;0.40;100.00
17054;BME280;8643;48.824;11.422;2023-04-09T04:56:34;97613.28;;;0.40;100.00
17054;BME280;8643;48.824;11.422;2023-04-09T04:59:15;97615.31;;;0.28;100.00
17054;BME280;8643;48.824;11.422;2023-04-09T05:01:57;97612.69;;;0.16;100.00
17054;BME280;8643;48.824;11.422;2023-04-09T05:04:29;97623.66;;;0.09;100.00
17054;BME280;8643;48.824;11.422;2023-04-09T05:06:59;97620.47;;;0.12;100.00
17054;BME280;8643;48.824;11.422;2023-04-09T05:09:27;97625.34;;;0.15;100.00
17054;BME280;8643;48.824;11.422;2023-04-09T05:12:07;97634.00;;;0.17;100.00
17054;BME280;8643;48.824;11.422;2023-04-09T05:14:36;97622.53;;;0.27;100.00
17054;BME280;8643;48.824;11.422;2023-04-09T05:17:04;97626.75;;;0.40;100.00
17054;BME280;8643;48.824;11.422;2023-04-09T05:19:40;97626.16;;;0.55;100.00
17054;BME280;8643;48.824;11.422;2023-04-09T05:22:11;97632.69;;;0.59;100.00
17054;BME280;8643;48.824;11.422;2023-04-09T05:24:39;97629.53;;;0.67;100.00
17054;BME280;8643;48.824;11.422;2023-04-09T05:27:11;97632.59;;;0.76;100.00
17054;BME280;8643;48.824;11.422;2023-04-09T05:29:40;97630.59;;;0.88;100.00
17054;BME280;8643;48.824;11.422;2023-04-09T05:32:09;97624.72;;;0.91;100.00
17054;BME280;8643;48.824;11.422;2023-04-09T05:34:39;97631.00;;;1.02;100.00
17054;BME280;8643;48.824;11.422;2023-04-09T05:37:07;97628.38;;;1.07;100.00
17054;BME280;8643;48.824;11.422;2023-04-09T05:39:36;97631.19;;;1.18;100.00
17054;BME280;8643;48.824;11.422;2023-04-09T05:42:04;97636.13;;;1.26;100.00
17054;BME280;8643;48.824;11.422;2023-04-09T05:44:42;97629.66;;;1.54;100.00
17054;BME280;8643;48.824;11.422;2023-04-09T05:47:15;97638.50;;;1.82;100.00
17054;BME280;8643;48.824;11.422;2023-04-09T05:50:07;97637.88;;;2.45;100.00
17054;BME280;8643;48.824;11.422;2023-04-09T05:52:36;97631.34;;;2.93;100.00
17054;BME280;8643;48.824;11.422;2023-04-09T05:55:06;97636.06;;;3.39;100.00
17054;BME280;8643;48.824;11.422;2023-04-09T05:57:45;97631.75;;;3.95;100.00
17054;BME280;8643;48.824;11.422;2023-04-09T06:00:16;97630.91;;;4.20;100.00
17054;BME280;8643;48.824;11.422;2023-04-09T06:02:47;97641.19;;;4.38;100.00
17054;BME280;8643;48.824;11.422;2023-04-09T06:05:16;97637.50;;;4.89;100.00
17054;BME280;8643;48.824;11.422;2023-04-09T06:07:46;97640.41;;;5.08;100.00
17054;BME280;8643;48.824;11.422;2023-04-09T06:10:14;97637.25;;;5.41;100.00
17054;BME280;8643;48.824;11.422;2023-04-09T06:12:43;97640.56;;;5.77;100.00
17054;BME280;8643;48.824;11.422;2023-04-09T06:15:12;97642.66;;;5.85;100.00
17054;BME280;8643;48.824;11.422;2023-04-09T06:17:42;97640.00;;;6.15;100.00
17054;BME280;8643;48.824;11.422;2023-04-09T06:20:10;97643.13;;;6.27;100.00
17054;BME280;8643;48.824;11.422;2023-04-09T06:22:39;97640.69;;;6.26;100.00
17054;BME280;8643;48.824;11.422;2023-04-09T06:25:08;97641.00;;;6.24;100.00
17054;BME280;8643;48.824;11.422;2023-04-09T06:27:36;97642.88;;;6.53;100.00
17054;BME280;8643;48.824;11.422;2023-04-09T06:30:07;97643.69;;;7.02;100.00
17054;BME280;8643;48.824;11.422;2023-04-09T06:32:35;97647.88;;;7.37;100.00
17054;BME280;8643;48.824;11.422;2023-04-09T06:35:21;97644.94;;;7.52;100.00
17054;BME280;8643;48.824;11.422;2023-04-09T06:37:50;97655.00;;;7.33;100.00
17054;BME280;8643;48.824;11.422;2023-04-09T06:40:18;97653.03;;;7.77;100.00
17054;BME280;8643;48.824;11.422;2023-04-09T06:42:49;97659.34;;;8.10;100.00
17054;BME280;8643;48.824;11.422;2023-04-09T06:45:27;97664.06;;;8.04;100.00
17054;BME280;8643;48.824;11.422;2023-04-09T06:47:55;97658.78;;;7.94;100.00
17054;BME280;8643;48.824;11.422;2023-04-09T06:50:25;97666.06;;;8.32;100.00
17054;BME280;8643;48.824;11.422;2023-04-09T06:52:56;97662.88;;;8.43;100.00
17054;BME280;8643;48.824;11.422;2023-04-09T06:55:25;97667.16;;;8.63;100.00
17054;BME280;8643;48.824;11.422;2023-04-09T06:57:54;97669.63;;;8.79;100.00
17054;BME280;8643;48.824;11.422;2023-04-09T07:00:23;97670.94;;;8.68;100.00
17054;BME280;8643;48.824;11.422;2023-04-09T07:02:52;97669.53;;;8.98;100.00
17054;BME280;8643;48.824;11.422;2023-04-09T07:05:21;97665.25;;;9.33;100.00
17054;BME280;8643;48.824;11.422;2023-04-09T07:07:51;97666.75;;;9.90;100.00
17054;BME280;8643;48.824;11.422;2023-04-09T07:10:20;97670.06;;;10.23;100.00
17054;BME280;8643;48.824;11.422;2023-04-09T07:12:48;97667.41;;;9.73;100.00
17054;BME280;8643;48.824;11.422;2023-04-09T07:15:17;97662.94;;;9.41;100.00
17054;BME280;8643;48.824;11.422;2023-04-09T07:17:45;97652.56;;;9.88;100.00
17054;BME280;8643;48.824;11.422;2023-04-09T07:20:14;97660.88;;;10.05;99.62
17054;BME280;8643;48.824;11.422;2023-04-09T07:22:42;97656.09;;;9.88;95.24
17054;BME280;8643;48.824;11.422;2023-04-09T07:25:12;97663.75;;;10.00;94.96
17054;BME280;8643;48.824;11.422;2023-04-09T07:27:41;97658.44;;;10.40;93.16
17054;BME280;8643;48.824;11.422;2023-04-09T07:30:10;97657.31;;;10.73;95.34
17054;BME280;8643;48.824;11.422;2023-04-09T07:32:39;97659.63;;;11.28;92.58
17054;BME280;8643;48.824;11.422;2023-04-09T07:35:09;97666.59;;;11.52;93.32
17054;BME280;8643;48.824;11.422;2023-04-09T07:37:37;97659.94;;;11.35;86.28
17054;BME280;8643;48.824;11.422;2023-04-09T07:40:07;97667.81;;;11.19;89.72
17054;BME280;8643;48.824;11.422;2023-04-09T07:42:38;97665.72;;;11.16;86.34
17054;BME280;8643;48.824;11.422;2023-04-09T07:45:07;97666.38;;;11.31;87.26
17054;BME280;8643;48.824;11.422;2023-04-09T07:47:37;97670.88;;;11.93;84.84
17054;BME280;8643;48.824;11.422;2023-04-09T07:50:08;97662.78;;;12.88;82.30
17054;BME280;8643;48.824;11.422;2023-04-09T07:52:37;97672.44;;;12.38;78.41
17054;BME280;8643;48.824;11.422;2023-04-09T07:55:06;97681.13;;;10.63;84.79
17054;BME280;8643;48.824;11.422;2023-04-09T07:57:36;97677.66;;;11.21;88.85
17054;BME280;8643;48.824;11.422;2023-04-09T08:00:06;97672.53;;;11.36;84.28
17054;BME280;8643;48.824;11.422;2023-04-09T08:02:41;97673.72;;;11.79;83.64
17054;BME280;8643;48.824;11.422;2023-04-09T08:05:09;97674.34;;;13.02;84.26
17054;BME280;8643;48.824;11.422;2023-04-09T08:07:38;97681.88;;;13.82;77.85
17054;BME280;8643;48.824;11.422;2023-04-09T08:10:08;97679.97;;;13.53;83.61
17054;BME280;8643;48.824;11.422;2023-04-09T08:12:43;97685.47;;;13.14;81.23
17054;BME280;8643;48.824;11.422;2023-04-09T08:15:12;97686.66;;;13.05;82.23
17054;BME280;8643;48.824;11.422;2023-04-09T08:17:40;97686.13;;;13.50;86.04
17054;BME280;8643;48.824;11.422;2023-04-09T08:20:10;97691.41;;;13.25;75.75
17054;BME280;8643;48.824;11.422;2023-04-09T08:22:39;97695.28;;;12.86;80.85
17054;BME280;8643;48.824;11.422;2023-04-09T08:25:09;97690.38;;;13.09;73.72
17054;BME280;8643;48.824;11.422;2023-04-09T08:27:37;97695.13;;;13.38;72.73
17054;BME280;8643;48.824;11.422;2023-04-09T08:30:09;97689.53;;;13.77;69.91
17054;BME280;8643;48.824;11.422;2023-04-09T08:32:37;97687.25;;;14.75;66.21
17054;BME280;8643;48.824;11.422;2023-04-09T08:35:07;97692.97;;;14.70;65.24
17054;BME280;8643;48.824;11.422;2023-04-09T08:37:36;97691.09;;;15.57;64.87
17054;BME280;8643;48.824;11.422;2023-04-09T08:40:06;97692.00;;;14.99;62.82
17054;BME280;8643;48.824;11.422;2023-04-09T08:42:38;97692.34;;;14.31;63.65
17054;BME280;8643;48.824;11.422;2023-04-09T08:45:13;97688.09;;;14.34;70.14
17054;BME280;8643;48.824;11.422;2023-04-09T08:47:44;97690.16;;;15.03;66.52
17054;BME280;8643;48.824;11.422;2023-04-09T08:50:13;97686.50;;;14.99;63.91
17054;BME280;8643;48.824;11.422;2023-04-09T08:52:45;97685.78;;;14.90;64.92
17054;BME280;8643;48.824;11.422;2023-04-09T08:55:14;97687.41;;;15.03;71.44
17054;BME280;8643;48.824;11.422;2023-04-09T08:57:42;97686.16;;;15.26;62.69
17054;BME280;8643;48.824;11.422;2023-04-09T09:00:13;97683.72;;;15.73;68.11
17054;BME280;8643;48.824;11.422;2023-04-09T09:03:03;97695.03;;;15.44;60.48
17054;BME280;8643;48.824;11.422;2023-04-09T09:05:38;97688.22;;;15.16;61.40
17054;BME280;8643;48.824;11.422;2023-04-09T09:08:09;97689.16;;;15.45;63.51
17054;BME280;8643;48.824;11.422;2023-04-09T09:10:42;97689.16;;;15.45;57.78
17054;BME280;8643;48.824;11.422;2023-04-09T09:13:20;97684.78;;;15.44;58.69
17054;BME280;8643;48.824;11.422;2023-04-09T09:15:53;97685.44;;;15.66;61.77
17054;BME280;8643;48.824;11.422;2023-04-09T09:18:38;97686.91;;;16.00;63.65
17054;BME280;8643;48.824;11.422;2023-04-09T09:21:14;97689.22;;;15.61;58.26
17054;BME280;8643;48.824;11.422;2023-04-09T09:23:44;97689.91;;;15.70;63.85
17054;BME280;8643;48.824;11.422;2023-04-09T09:26:16;97676.44;;;15.93;63.55
17054;BME280;8643;48.824;11.422;2023-04-09T09:28:47;97677.63;;;16.21;63.05
17054;BME280;8643;48.824;11.422;2023-04-09T09:31:20;97670.44;;;16.04;55.90
17054;BME280;8643;48.824;11.422;2023-04-09T09:33:50;97676.69;;;16.29;57.16
17054;BME280;8643;48.824;11.422;2023-04-09T09:36:32;97683.56;;;16.07;59.58
17054;BME280;8643;48.824;11.422;2023-04-09T09:39:02;97678.41;;;16.78;60.05
17054;BME280;8643;48.824;11.422;2023-04-09T09:41:36;97674.25;;;16.56;52.95
17054;BME280;8643;48.824;11.422;2023-04-09T09:44:06;97677.28;;;14.95;55.63
17054;BME280;8643;48.824;11.422;2023-04-09T09:46:38;97686.44;;;13.99;66.53
17054;BME280;8643;48.824;11.422;2023-04-09T09:49:08;97696.53;;;13.74;69.85
17054;BME280;8643;48.824;11.422;2023-04-09T09:51:39;97681.41;;;14.01;65.44
17054;BME280;8643;48.824;11.422;2023-04-09T09:54:10;97678.84;;;13.75;64.43
17054;BME280;8643;48.824;11.422;2023-04-09T09:56:40;97688.44;;;13.48;69.68
17054;BME280;8643;48.824;11.422;2023-04-09T09:59:17;97690.72;;;13.67;67.42
17054;BME280;8643;48.824;11.422;2023-04-09T10:01:56;97684.38;;;13.45;64.43
17054;BME280;8643;48.824;11.422;2023-04-09T10:04:30;97678.63;;;13.80;65.25
17054;BME280;8643;48.824;11.422;2023-04-09T10:07:03;97670.13;;;14.94;67.36
17054;BME280;8643;48.824;11.422;2023-04-09T10:09:36;97668.19;;;15.07;64.56
17054;BME280;8643;48.824;11.422;2023-04-09T10:12:06;97671.34;;;14.60;63.47
17054;BME280;8643;48.824;11.422;2023-04-09T10:14:38;97670.84;;;14.24;65.55
17054;BME280;8643;48.824;11.422;2023-04-09T10:17:08;97672.53;;;14.17;66.34
17054;BME280;8643;48.824;11.422;2023-04-09T10:19:41;97677.13;;;14.67;63.81
17054;BME280;8643;48.824;11.422;2023-04-09T10:22:15;97673.63;;;14.03;65.99
17054;BME280;8643;48.824;11.422;2023-04-09T10:24:45;97676.72;;;15.64;58.57
17054;BME280;8643;48.824;11.422;2023-04-09T10:27:15;97678.72;;;16.89;55.41
17054;BME280;8643;48.824;11.422;2023-04-09T10:29:46;97673.88;;;16.41;57.07
17054;BME280;8643;48.824;11.422;2023-04-09T10:32:20;97662.91;;;15.51;56.06
17054;BME280;8643;48.824;11.422;2023-04-09T10:34:50;97665.13;;;15.21;66.94
17054;BME280;8643;48.824;11.422;2023-04-09T10:37:22;97675.31;;;14.96;59.62
17054;BME280;8643;48.824;11.422;2023-04-09T10:39:52;97669.81;;;15.57;58.68
17054;BME280;8643;48.824;11.422;2023-04-09T10:42:23;97665.66;;;15.51;59.20
17054;BME280;8643;48.824;11.422;2023-04-09T10:45:06;97666.09;;;15.90;63.71
17054;BME280;8643;48.824;11.422;2023-04-09T10:47:38;97677.03;;;17.32;52.40
17054;BME280;8643;48.824;11.422;2023-04-09T10:50:18;97672.00;;;18.05;52.09
17054;BME280;8643;48.824;11.422;2023-04-09T10:52:51;97672.41;;;17.71;51.02
17054;BME280;8643;48.824;11.422;2023-04-09T10:55:34;97679.28;;;16.38;57.33
17054;BME280;8643;48.824;11.422;2023-04-09T10:58:05;97676.28;;;14.33;59.48
17054;BME280;8643;48.824;11.422;2023-04-09T11:00:40;97673.50;;;13.19;64.79
17054;BME280;8643;48.824;11.422;2023-04-09T11:03:23;97677.56;;;12.65;59.77
17054;BME280;8643;48.824;11.422;2023-04-09T11:05:58;97671.31;;;12.39;63.09
17054;BME280;8643;48.824;11.422;2023-04-09T11:08:28;97677.53;;;11.34;60.63
17054;BME280;8643;48.824;11.422;2023-04-09T11:10:59;97664.47;;;10.82;61.03
17054;BME280;8643;48.824;11.422;2023-04-09T11:13:30;97658.66;;;10.84;61.90
17054;BME280;8643;48.824;11.422;2023-04-09T11:15:59;97660.34;;;11.86;61.16
17054;BME280;8643;48.824;11.422;2023-04-09T11:18:33;97661.63;;;11.71;66.20
17054;BME280;8643;48.824;11.422;2023-04-09T11:21:03;97658.28;;;11.08;66.73
17054;BME280;8643;48.824;11.422;2023-04-09T11:23:33;97653.00;;;10.80;69.61
17054;BME280;8643;48.824;11.422;2023-04-09T11:26:01;97655.56;;;10.77;68.92
17054;BME280;8643;48.824;11.422;2023-04-09T11:28:33;97653.59;;;10.69;65.39
17054;BME280;8643;48.824;11.422;2023-04-09T11:31:04;97651.25;;;10.53;64.24
17054;BME280;8643;48.824;11.422;2023-04-09T11:33:34;97650.63;;;10.88;62.79
17054;BME280;8643;48.824;11.422;2023-04-09T11:36:04;97650.31;;;11.73;63.14
17054;BME280;8643;48.824;11.422;2023-04-09T11:38:35;97649.91;;;12.71;59.49
17054;BME280;8643;48.824;11.422;2023-04-09T11:41:04;97651.41;;;12.51;57.85
17054;BME280;8643;48.824;11.422;2023-04-09T11:43:35;97640.75;;;14.53;57.09
17054;BME280;8643;48.824;11.422;2023-04-09T11:46:04;97651.59;;;14.03;55.33
17054;BME280;8643;48.824;11.422;2023-04-09T11:48:35;97653.09;;;14.34;53.10
17054;BME280;8643;48.824;11.422;2023-04-09T11:51:04;97645.94;;;16.02;58.11
17054;BME280;8643;48.824;11.422;2023-04-09T11:53:36;97642.66;;;17.49;49.65
17054;BME280;8643;48.824;11.422;2023-04-09T11:56:05;97643.34;;;15.69;51.37
17054;BME280;8643;48.824;11.422;2023-04-09T11:58:34;97648.00;;;14.24;56.53
17054;BME280;8643;48.824;11.422;2023-04-09T12:01:03;97648.28;;;15.88;53.51
17054;BME280;8643;48.824;11.422;2023-04-09T12:03:32;97646.41;;;17.25;47.54
17054;BME280;8643;48.824;11.422;2023-04-09T12:06:06;97645.97;;;17.22;48.36
17054;BME280;8643;48.824;11.422;2023-04-09T12:08:35;97643.47;;;14.74;53.00
17054;BME280;8643;48.824;11.422;2023-04-09T12:11:08;97652.72;;;13.30;58.86
17054;BME280;8643;48.824;11.422;2023-04-09T12:13:38;97649.72;;;13.14;58.30
17054;BME280;8643;48.824;11.422;2023-04-09T12:16:10;97640.25;;;14.72;52.80
17054;BME280;8643;48.824;11.422;2023-04-09T12:18:39;97641.19;;;16.59;53.82
17054;BME280;8643;48.824;11.422;2023-04-09T12:21:09;97636.91;;;16.46;50.74
17054;BME280;8643;48.824;11.422;2023-04-09T12:23:38;97643.94;;;15.62;54.23
17054;BME280;8643;48.824;11.422;2023-04-09T12:26:06;97645.22;;;15.15;55.12
17054;BME280;8643;48.824;11.422;2023-04-09T12:28:35;97644.56;;;14.27;54.36
17054;BME280;8643;48.824;11.422;2023-04-09T12:31:03;97644.81;;;13.80;59.15
17054;BME280;8643;48.824;11.422;2023-04-09T12:33:32;97640.78;;;14.65;59.68
17054;BME280;8643;48.824;11.422;2023-04-09T12:36:00;97639.41;;;16.83;51.43
17054;BME280;8643;48.824;11.422;2023-04-09T12:38:30;97637.44;;;17.83;49.83
17054;BME280;8643;48.824;11.422;2023-04-09T12:40:59;97635.06;;;17.30;44.64
17054;BME280;8643;48.824;11.422;2023-04-09T12:43:28;97638.59;;;17.62;46.01
17054;BME280;8643;48.824;11.422;2023-04-09T12:45:57;97639.09;;;15.59;54.74
17054;BME280;8643;48.824;11.422;2023-04-09T12:48:25;97630.91;;;14.30;57.25
17054;BME280;8643;48.824;11.422;2023-04-09T12:50:54;97633.66;;;13.97;60.53
17054;BME280;8643;48.824;11.422;2023-04-09T12:53:22;97639.19;;;13.97;54.45
17054;BME280;8643;48.824;11.422;2023-04-09T12:55:52;97634.72;;;15.70;51.19
17054;BME280;8643;48.824;11.422;2023-04-09T12:58:21;97624.78;;;14.58;51.01
17054;BME280;8643;48.824;11.422;2023-04-09T13:00:49;97626.84;;;13.61;53.75
17054;BME280;8643;48.824;11.422;2023-04-09T13:03:19;97628.69;;;13.18;59.31
17054;BME280;8643;48.824;11.422;2023-04-09T13:05:48;97632.47;;;12.67;56.10
17054;BME280;8643;48.824;11.422;2023-04-09T13:08:17;97630.72;;;13.00;56.88
17054;BME280;8643;48.824;11.422;2023-04-09T13:10:45;97627.59;;;13.11;56.83
17054;BME280;8643;48.824;11.422;2023-04-09T13:13:15;97633.94;;;13.02;62.20
17054;BME280;8643;48.824;11.422;2023-04-09T13:15:44;97630.72;;;13.00;57.48
17054;BME280;8643;48.824;11.422;2023-04-09T13:18:12;97620.66;;;14.19;57.72
17054;BME280;8643;48.824;11.422;2023-04-09T13:20:41;97620.00;;;16.35;51.32
17054;BME280;8643;48.824;11.422;2023-04-09T13:23:09;97615.50;;;16.43;49.03